createdAt,value
2022-12-22T00:07:23.340Z,1018.74
2022-12-22T00:21:23.337Z,1018.52
2022-12-22T00:35:23.383Z,1018.49
2022-12-22T00:49:23.357Z,1018.43
2022-12-22T01:03:23.488Z,1018.37
2022-12-22T01:17:23.378Z,1018.33
2022-12-22T01:31:23.426Z,1018.33
2022-12-22T01:45:23.419Z,1018.27
2022-12-22T01:59:23.456Z,1018.24
2022-12-22T02:13:23.395Z,1017.96
2022-12-22T02:27:23.395Z,1017.97
2022-12-22T02:41:23.420Z,1017.89
2022-12-22T02:55:23.426Z,1017.96
2022-12-22T03:09:23.420Z,1017.74
2022-12-22T03:23:23.428Z,1017.69
2022-12-22T03:37:23.445Z,1017.6
2022-12-22T03:51:23.496Z,1017.56
2022-12-22T04:05:23.513Z,1017.54
2022-12-22T04:19:23.536Z,1017.68
2022-12-22T04:33:23.570Z,1017.37
2022-12-22T04:47:23.574Z,1017.68
2022-12-22T05:01:23.704Z,1017.58
2022-12-22T05:15:23.630Z,1017.54
2022-12-22T05:29:23.701Z,1017.27
2022-12-22T05:43:23.703Z,1017.5
2022-12-22T05:57:23.714Z,1017.7
2022-12-22T06:11:23.747Z,1017.58
2022-12-22T06:25:23.769Z,1017.41
2022-12-22T06:39:23.757Z,1017.53
2022-12-22T06:54:26.246Z,1017.44
2022-12-22T07:09:23.745Z,1017.6
2022-12-22T07:25:23.795Z,1017.47
2022-12-22T07:40:23.830Z,1017.79
2022-12-22T07:55:23.810Z,1017.6
2022-12-22T08:10:23.862Z,1017.92
2022-12-22T08:25:23.884Z,1018.06
2022-12-22T08:40:24.006Z,1017.91
2022-12-22T08:55:23.875Z,1017.81
2022-12-22T09:10:23.901Z,1017.86
2022-12-22T09:25:23.902Z,1017.67
2022-12-22T09:40:23.924Z,1017.48
2022-12-22T09:55:23.907Z,1017.46
2022-12-22T10:10:23.932Z,1017.27
2022-12-22T10:25:23.934Z,1017.17
2022-12-22T10:40:23.950Z,1017.08
2022-12-22T10:55:23.964Z,1017.07
2022-12-22T11:10:23.981Z,1016.85
2022-12-22T11:25:23.965Z,1016.94
2022-12-22T11:40:23.987Z,1016.83
2022-12-22T11:55:24.000Z,1016.7
2022-12-22T12:10:23.994Z,1016.35
2022-12-22T12:25:25.929Z,1016.27
2022-12-22T12:40:24.054Z,1016.05
2022-12-22T12:55:28.142Z,1015.81
2022-12-22T13:11:52.428Z,1015.95
2022-12-22T13:27:24.087Z,1015.76
2022-12-22T13:42:24.190Z,1015.82
2022-12-22T13:57:24.131Z,1015.88
2022-12-22T14:12:24.155Z,1015.9
2022-12-22T14:38:12.443Z,1016.03
2022-12-22T14:53:12.499Z,1015.88
2022-12-22T15:08:12.517Z,1016.13
2022-12-22T15:23:12.515Z,1016.11
2022-12-22T15:38:12.577Z,1016.25
2022-12-22T15:53:12.684Z,1016.35
2022-12-22T16:08:17.633Z,1016.3
2022-12-22T16:22:12.683Z,1016.29
2022-12-22T16:36:12.694Z,1016.28
2022-12-22T16:50:12.714Z,1016.32
2022-12-22T17:04:12.837Z,1016.3
2022-12-22T17:18:12.772Z,1016.21
2022-12-22T17:32:13.267Z,1016.19
2022-12-22T17:46:13.142Z,1016.12
2022-12-22T18:00:17.993Z,1016.16
2022-12-22T18:15:13.185Z,1016.05
2022-12-22T18:29:14.019Z,1016.22
2022-12-22T18:43:13.235Z,1016.35
2022-12-22T18:57:13.242Z,1016.5
2022-12-22T19:11:13.347Z,1016.43
2022-12-22T19:25:13.392Z,1016.41
2022-12-22T19:39:13.400Z,1016.67
2022-12-22T19:53:13.422Z,1016.51
2022-12-22T20:07:13.406Z,1016.53
2022-12-22T20:21:13.523Z,1016.54
2022-12-22T20:35:13.529Z,1016.44
2022-12-22T20:49:13.576Z,1016.5
2022-12-22T21:03:13.642Z,1016.38
2022-12-22T21:17:13.590Z,1016.31
2022-12-22T21:31:13.623Z,1016.42
2022-12-22T21:45:13.573Z,1016.42
2022-12-22T21:59:13.558Z,1016.49
2022-12-22T22:13:13.590Z,1016.25
2022-12-22T22:27:13.553Z,1016.03
2022-12-22T22:41:13.672Z,1016.05
2022-12-22T22:55:13.602Z,1016.17
2022-12-22T23:09:13.657Z,1016.15
2022-12-22T23:23:13.676Z,1015.89
2022-12-22T23:37:19.221Z,1015.78
2022-12-22T23:51:13.692Z,1015.72
